Time;durP1;ratioP1;P1;durP2;ratioP2;P2;SDS_P1;SDS_P2;PMS_P1;PMS_P2;Temp;Humidity;BMP_temperature;BMP_pressure;BME280_temperature;BME280_humidity;BME280_pressure;Samples;Min_cycle;Max_cycle;Signal;HPM_P1;HPM_P2
2022/08/26 00:01:53;;;;;;;21.40;19.30;;;20.80;99.90;;;;;;5095935;28;20067;-72
2022/08/26 00:04:20;;;;;;;22.35;20.15;;;20.80;99.90;;;;;;5094689;28;20046;-72
2022/08/26 00:06:45;;;;;;;21.67;19.40;;;20.80;99.90;;;;;;5094482;28;20045;-71
2022/08/26 00:09:11;;;;;;;24.10;21.67;;;20.70;99.90;;;;;;5094458;28;20504;-71
2022/08/26 00:11:36;;;;;;;26.88;24.17;;;20.80;99.90;;;;;;5094275;28;20406;-71
2022/08/26 00:14:02;;;;;;;29.40;26.30;;;20.80;99.90;;;;;;5093967;28;20051;-72
2022/08/26 00:16:28;;;;;;;30.42;27.50;;;20.70;99.90;;;;;;5077453;28;20048;-71
2022/08/26 00:18:54;;;;;;;30.55;27.33;;;20.70;99.90;;;;;;5094255;28;20044;-71
2022/08/26 00:21:20;;;;;;;31.88;28.75;;;20.60;99.90;;;;;;5094122;28;20145;-71
2022/08/26 00:23:46;;;;;;;32.75;29.45;;;20.60;99.90;;;;;;5095383;28;20400;-71
2022/08/26 00:26:12;;;;;;;36.53;32.88;;;20.50;99.90;;;;;;5094332;28;20369;-71
2022/08/26 00:28:39;;;;;;;30.73;27.83;;;20.50;99.90;;;;;;5095185;28;20507;-71
2022/08/26 00:31:04;;;;;;;31.60;28.48;;;20.50;99.90;;;;;;5095344;28;20032;-72
2022/08/26 00:33:30;;;;;;;32.42;29.23;;;20.50;99.90;;;;;;5093969;28;20047;-72
2022/08/26 00:35:57;;;;;;;33.40;30.17;;;20.50;99.90;;;;;;5095198;28;20395;-73
2022/08/26 00:38:23;;;;;;;34.65;31.05;;;20.50;99.90;;;;;;5095118;28;20048;-72
2022/08/26 00:40:52;;;;;;;35.13;31.65;;;20.50;99.90;;;;;;5093745;28;20079;-72
2022/08/26 00:43:18;;;;;;;34.20;30.85;;;20.50;99.90;;;;;;5094906;28;20085;-72
2022/08/26 00:45:49;;;;;;;34.50;31.10;;;20.50;99.90;;;;;;5093973;28;20486;-71
2022/08/26 00:48:18;;;;;;;35.10;31.60;;;20.50;99.90;;;;;;5110566;28;20071;-73
2022/08/26 00:50:52;;;;;;;36.47;33.03;;;20.50;99.90;;;;;;5127786;27;20127;-72
2022/08/26 00:53:22;;;;;;;34.38;30.83;;;20.50;99.90;;;;;;5093857;28;20442;-72
2022/08/26 00:55:54;;;;;;;33.97;30.52;;;20.60;99.90;;;;;;5094644;28;20032;-72
2022/08/26 00:58:22;;;;;;;32.42;28.88;;;20.50;99.90;;;;;;5094686;28;20040;-72
2022/08/26 01:00:48;;;;;;;34.53;30.83;;;20.60;99.90;;;;;;5093321;28;20067;-72
2022/08/26 01:03:18;;;;;;;32.50;28.77;;;20.60;99.90;;;;;;5093338;28;20441;-72
2022/08/26 01:05:45;;;;;;;32.88;29.25;;;20.60;99.90;;;;;;5093480;28;20042;-72
2022/08/26 01:08:11;;;;;;;29.52;26.13;;;20.70;99.90;;;;;;5093459;28;20043;-72
2022/08/26 01:10:36;;;;;;;29.52;26.38;;;20.70;99.90;;;;;;5093470;28;20094;-73
2022/08/26 01:13:05;;;;;;;30.45;26.70;;;20.70;99.90;;;;;;5092961;28;20083;-71
2022/08/26 01:15:35;;;;;;;32.20;26.65;;;20.70;99.90;;;;;;5094374;28;20044;-72
2022/08/26 01:18:05;;;;;;;31.80;27.05;;;20.80;99.90;;;;;;5076160;28;20131;-72
2022/08/26 01:20:52;;;;;;;33.17;28.38;;;20.80;99.90;;;;;;5076091;28;20046;-72
2022/08/26 01:23:18;;;;;;;27.27;24.30;;;20.80;99.90;;;;;;5076150;28;20036;-72
2022/08/26 01:25:58;;;;;;;31.58;27.15;;;20.80;99.90;;;;;;5094357;28;20043;-72
2022/08/26 01:28:29;;;;;;;29.65;26.42;;;20.80;99.90;;;;;;5093228;28;20040;-71
2022/08/26 01:30:58;;;;;;;31.30;26.15;;;20.80;99.90;;;;;;5092791;28;20055;-72
2022/08/26 01:33:51;;;;;;;32.78;26.88;;;20.80;99.90;;;;;;5093042;28;20118;-71
2022/08/26 01:36:17;;;;;;;32.05;24.08;;;20.80;99.90;;;;;;5082402;28;20496;-72
2022/08/26 01:38:43;;;;;;;26.50;22.98;;;20.80;99.90;;;;;;5092787;28;20036;-71
2022/08/26 01:41:14;;;;;;;26.25;21.75;;;20.80;99.90;;;;;;5092624;28;20074;-72
2022/08/26 01:43:44;;;;;;;29.48;23.55;;;20.80;99.90;;;;;;5092707;28;20075;-72
2022/08/26 01:46:11;;;;;;;31.27;23.67;;;20.90;99.90;;;;;;5094086;28;20442;-72
2022/08/26 01:48:38;;;;;;;29.95;23.52;;;20.80;99.90;;;;;;5093978;28;20036;-72
2022/08/26 01:51:08;;;;;;;30.73;21.70;;;20.80;99.90;;;;;;5093876;28;20085;-72
2022/08/26 01:53:34;;;;;;;31.33;22.42;;;20.80;99.90;;;;;;5075978;28;20470;-72
2022/08/26 01:56:01;;;;;;;28.30;20.92;;;20.80;99.90;;;;;;5093596;28;20075;-72
2022/08/26 01:58:33;;;;;;;29.23;20.60;;;20.90;99.90;;;;;;5109643;28;20118;-72
2022/08/26 02:00:59;;;;;;;24.38;20.05;;;20.90;99.90;;;;;;5092160;28;20039;-72
2022/08/26 02:03:26;;;;;;;28.35;22.65;;;20.90;99.90;;;;;;5092245;28;20044;-72
2022/08/26 02:06:04;;;;;;;26.02;20.38;;;20.90;99.90;;;;;;5093703;28;20089;-72
2022/08/26 02:08:49;;;;;;;29.92;21.70;;;20.90;99.90;;;;;;5093533;28;20434;-71
2022/08/26 02:11:15;;;;;;;27.27;20.90;;;20.90;99.90;;;;;;5075433;28;20048;-71
2022/08/26 02:13:55;;;;;;;25.75;21.80;;;20.90;99.90;;;;;;5091976;28;20580;-71
2022/08/26 02:16:24;;;;;;;25.40;20.48;;;20.90;99.90;;;;;;5092188;28;20079;-72
2022/08/26 02:18:51;;;;;;;24.00;19.17;;;20.90;99.90;;;;;;5092125;28;20065;-71
2022/08/26 02:21:17;;;;;;;26.17;19.80;;;21.00;99.90;;;;;;5092678;28;20055;-72
2022/08/26 02:23:43;;;;;;;27.23;18.80;;;20.90;99.90;;;;;;5091998;28;20503;-71
2022/08/26 02:26:13;;;;;;;29.48;20.42;;;20.90;99.90;;;;;;5092155;28;20039;-72
2022/08/26 02:28:56;;;;;;;28.67;20.48;;;20.90;99.90;;;;;;5093338;28;20110;-72
2022/08/26 02:31:22;;;;;;;29.60;21.27;;;21.00;99.90;;;;;;5098456;28;20039;-72
2022/08/26 02:33:47;;;;;;;22.83;19.58;;;20.90;99.90;;;;;;5109524;28;20035;-72
2022/08/26 02:36:22;;;;;;;23.02;17.92;;;20.90;99.90;;;;;;5111499;28;20047;-72
2022/08/26 02:38:47;;;;;;;24.85;20.33;;;20.90;99.90;;;;;;5129615;28;20039;-72
2022/08/26 02:41:13;;;;;;;29.60;20.77;;;20.90;99.90;;;;;;5129336;28;20092;-72
2022/08/26 02:43:38;;;;;;;27.35;21.45;;;20.90;99.90;;;;;;5112150;28;20476;-72
2022/08/26 02:46:04;;;;;;;31.38;22.98;;;21.00;99.90;;;;;;5112146;28;20061;-72
2022/08/26 02:48:30;;;;;;;28.30;20.30;;;20.90;99.90;;;;;;5112313;28;20145;-72
2022/08/26 02:50:59;;;;;;;29.27;22.35;;;20.90;99.90;;;;;;5112425;28;20043;-72
2022/08/26 02:53:24;;;;;;;28.33;20.27;;;20.90;99.90;;;;;;5112062;28;20039;-72
2022/08/26 02:55:50;;;;;;;28.20;21.92;;;20.90;99.90;;;;;;5095157;28;20121;-72
2022/08/26 02:58:16;;;;;;;28.13;21.25;;;20.90;99.90;;;;;;5113355;28;20035;-72
2022/08/26 03:00:41;;;;;;;27.05;20.77;;;20.90;99.90;;;;;;5113281;28;20100;-72
2022/08/26 03:03:07;;;;;;;32.30;22.60;;;20.90;99.90;;;;;;5111997;28;20547;-71
2022/08/26 03:05:33;;;;;;;31.52;22.52;;;20.90;99.90;;;;;;5112044;28;20050;-72
2022/08/26 03:08:00;;;;;;;29.00;22.02;;;20.90;99.90;;;;;;5112040;28;20085;-71
2022/08/26 03:10:26;;;;;;;32.63;21.77;;;20.90;99.90;;;;;;5112008;28;20574;-71
2022/08/26 03:12:52;;;;;;;33.28;21.77;;;20.90;99.90;;;;;;5112355;28;20487;-71
2022/08/26 03:15:18;;;;;;;32.35;22.55;;;20.90;99.90;;;;;;5115758;28;20097;-72
2022/08/26 03:17:46;;;;;;;31.40;21.17;;;20.80;99.90;;;;;;5115758;28;20042;-72
2022/08/26 03:20:12;;;;;;;26.75;21.67;;;20.90;99.90;;;;;;5115804;28;20039;-71
2022/08/26 03:22:39;;;;;;;27.15;21.58;;;20.90;99.90;;;;;;5116900;28;20035;-71
2022/08/26 03:25:07;;;;;;;24.80;21.70;;;20.90;99.90;;;;;;5115721;28;20044;-72
2022/08/26 03:27:32;;;;;;;32.63;22.25;;;20.90;99.90;;;;;;5115934;28;20043;-71
2022/08/26 03:32:43;;;;;;;26.50;21.10;;;20.90;99.90;;;;;;5116885;28;20052;-71
2022/08/26 03:35:10;;;;;;;28.23;19.83;;;20.90;99.90;;;;;;5115444;28;20384;-71
2022/08/26 03:37:36;;;;;;;30.05;19.08;;;20.90;99.90;;;;;;5115637;28;20046;-71
2022/08/26 03:40:02;;;;;;;29.88;21.83;;;20.90;99.90;;;;;;5115743;28;20031;-71
2022/08/26 03:42:28;;;;;;;30.58;21.08;;;20.90;99.90;;;;;;5115304;28;20047;-71
2022/08/26 03:44:53;;;;;;;33.88;21.73;;;20.90;99.90;;;;;;5115316;28;20055;-71
2022/08/26 03:47:19;;;;;;;28.83;20.13;;;20.90;99.90;;;;;;5115506;28;20039;-72
2022/08/26 03:49:44;;;;;;;26.92;20.55;;;20.80;99.90;;;;;;5115212;28;20116;-71
2022/08/26 03:52:10;;;;;;;24.52;17.25;;;20.80;99.90;;;;;;5116328;28;20081;-71
2022/08/26 03:54:36;;;;;;;25.63;18.27;;;20.80;99.90;;;;;;5116302;28;20039;-71
2022/08/26 03:57:02;;;;;;;26.25;18.08;;;20.90;99.90;;;;;;5115108;28;20497;-71
2022/08/26 03:59:27;;;;;;;23.33;16.27;;;20.80;99.90;;;;;;5115086;28;20035;-71
2022/08/26 04:01:53;;;;;;;23.27;16.83;;;20.90;99.90;;;;;;5114999;28;20126;-72
2022/08/26 04:04:19;;;;;;;25.45;16.63;;;20.90;99.90;;;;;;5116220;28;20031;-72
2022/08/26 04:06:45;;;;;;;23.42;16.20;;;20.90;99.90;;;;;;5116173;28;20479;-72
2022/08/26 04:09:17;;;;;;;21.52;16.40;;;20.80;99.90;;;;;;5114867;28;20034;-72
2022/08/26 04:11:44;;;;;;;23.02;15.45;;;20.90;99.90;;;;;;5097850;28;20044;-72
2022/08/26 04:14:13;;;;;;;25.00;15.75;;;20.80;99.90;;;;;;5114478;28;20097;-71
2022/08/26 04:16:40;;;;;;;21.48;15.10;;;20.90;99.90;;;;;;5115945;28;20044;-72
2022/08/26 04:19:06;;;;;;;22.73;15.88;;;20.80;99.90;;;;;;5116031;28;20039;-71
2022/08/26 04:21:32;;;;;;;24.05;17.52;;;20.90;99.90;;;;;;5114645;28;20044;-72
2022/08/26 04:23:57;;;;;;;21.50;15.93;;;20.90;99.90;;;;;;5115199;28;20036;-72
2022/08/26 04:26:23;;;;;;;26.23;15.05;;;20.90;99.90;;;;;;5114541;28;20384;-72
2022/08/26 04:28:51;;;;;;;25.48;16.67;;;20.80;99.90;;;;;;5114412;28;20554;-71
2022/08/26 04:31:17;;;;;;;20.23;14.75;;;20.90;99.90;;;;;;5131649;27;20043;-71
2022/08/26 04:33:46;;;;;;;24.52;15.02;;;20.90;99.90;;;;;;5114384;28;20047;-71
2022/08/26 04:36:13;;;;;;;23.13;14.57;;;20.90;99.90;;;;;;5114226;28;20039;-71
2022/08/26 04:38:39;;;;;;;24.45;15.18;;;20.90;99.90;;;;;;5114231;28;20036;-71
2022/08/26 04:41:10;;;;;;;18.67;14.30;;;20.80;99.90;;;;;;5115688;28;20110;-71
2022/08/26 04:43:36;;;;;;;24.05;14.73;;;20.80;99.90;;;;;;5114084;28;20032;-71
2022/08/26 04:46:04;;;;;;;20.42;13.02;;;20.70;99.90;;;;;;5114118;28;20050;-71
2022/08/26 04:48:30;;;;;;;20.75;15.65;;;20.80;99.90;;;;;;5114110;28;20050;-72
2022/08/26 04:50:58;;;;;;;22.98;15.07;;;20.80;99.90;;;;;;5115191;28;20050;-71
2022/08/26 04:53:24;;;;;;;21.50;13.85;;;20.70;99.90;;;;;;5113889;28;20093;-71
2022/08/26 04:55:51;;;;;;;24.35;14.60;;;20.80;99.90;;;;;;5113912;28;20387;-71
2022/08/26 04:58:18;;;;;;;21.38;14.50;;;20.70;99.90;;;;;;5097152;28;20047;-71
2022/08/26 05:00:45;;;;;;;23.58;15.77;;;20.70;99.90;;;;;;5114088;28;20405;-71
2022/08/26 05:03:10;;;;;;;23.10;14.27;;;20.70;99.90;;;;;;5113706;28;20488;-71
2022/08/26 05:05:38;;;;;;;22.02;13.95;;;20.80;99.90;;;;;;5113878;28;20047;-71
2022/08/26 05:08:04;;;;;;;21.98;14.00;;;20.80;99.90;;;;;;5114902;28;20040;-71
2022/08/26 05:10:29;;;;;;;20.92;14.65;;;20.80;99.90;;;;;;5115031;28;20557;-71
2022/08/26 05:12:58;;;;;;;24.15;13.35;;;20.80;99.90;;;;;;5114689;28;20446;-71
2022/08/26 05:15:24;;;;;;;21.15;14.05;;;20.80;99.90;;;;;;5113469;28;20081;-71
2022/08/26 05:17:50;;;;;;;19.95;13.05;;;20.70;99.90;;;;;;5114809;28;20067;-71
2022/08/26 05:20:15;;;;;;;23.58;14.32;;;20.80;99.90;;;;;;5113489;28;20032;-71
2022/08/26 05:22:41;;;;;;;21.02;13.43;;;20.70;99.90;;;;;;5113699;28;20376;-71
2022/08/26 05:25:07;;;;;;;20.70;13.85;;;20.70;99.90;;;;;;5114692;28;20040;-71
2022/08/26 05:27:33;;;;;;;22.77;15.43;;;20.70;99.90;;;;;;5113641;28;20123;-71
2022/08/26 05:29:58;;;;;;;21.38;13.15;;;20.70;99.90;;;;;;5113277;28;20084;-71
2022/08/26 05:32:24;;;;;;;20.77;13.25;;;20.70;99.90;;;;;;5147790;27;20031;-71
2022/08/26 05:34:55;;;;;;;22.33;13.20;;;20.70;99.90;;;;;;5114054;28;20052;-71
2022/08/26 05:37:21;;;;;;;21.65;13.57;;;20.70;99.90;;;;;;5113842;28;20476;-71
2022/08/26 05:39:47;;;;;;;23.77;14.90;;;20.70;99.90;;;;;;5113184;28;20039;-71
2022/08/26 05:42:14;;;;;;;21.27;13.93;;;20.70;99.90;;;;;;5113422;28;20373;-71
2022/08/26 05:44:39;;;;;;;21.50;14.23;;;20.70;99.90;;;;;;5112983;28;20071;-71
2022/08/26 05:47:06;;;;;;;22.10;13.63;;;20.70;99.90;;;;;;5112901;28;20097;-71
2022/08/26 05:49:32;;;;;;;20.77;13.57;;;20.70;99.90;;;;;;5114084;28;20423;-71
2022/08/26 05:51:57;;;;;;;22.33;14.45;;;20.70;99.90;;;;;;5113107;28;20039;-71
2022/08/26 05:54:23;;;;;;;23.50;13.23;;;20.70;99.90;;;;;;5147088;27;20043;-71
2022/08/26 05:56:51;;;;;;;23.35;12.52;;;20.70;99.90;;;;;;5112827;28;20043;-71
2022/08/26 05:59:18;;;;;;;23.35;12.88;;;20.70;99.90;;;;;;5112800;28;20047;-71
2022/08/26 06:01:43;;;;;;;20.15;12.48;;;20.70;99.90;;;;;;5113948;28;20039;-71
2022/08/26 06:04:10;;;;;;;22.30;12.77;;;20.80;99.90;;;;;;5112809;28;20395;-71
2022/08/26 06:06:40;;;;;;;21.27;13.07;;;20.80;99.90;;;;;;5112700;28;20114;-71
2022/08/26 06:09:06;;;;;;;20.75;11.90;;;20.80;99.90;;;;;;5112608;28;20036;-71
2022/08/26 06:11:32;;;;;;;20.95;12.20;;;20.80;99.90;;;;;;5112621;28;20036;-71
2022/08/26 06:14:01;;;;;;;21.23;12.60;;;20.80;99.90;;;;;;5113622;28;20055;-71
2022/08/26 06:16:27;;;;;;;20.60;11.45;;;20.80;99.90;;;;;;5113648;28;20388;-71
2022/08/26 06:18:54;;;;;;;17.90;11.43;;;20.80;99.90;;;;;;5114252;28;20043;-71
2022/08/26 06:21:25;;;;;;;18.13;10.85;;;20.90;99.90;;;;;;5095757;28;20061;-71
2022/08/26 06:26:38;;;;;;;21.38;10.63;;;20.90;99.90;;;;;;5112420;28;20415;-71
2022/08/26 06:29:05;;;;;;;18.15;10.30;;;21.00;99.90;;;;;;5112243;28;20054;-71
2022/08/26 06:31:33;;;;;;;17.90;10.98;;;21.00;99.90;;;;;;5095395;28;20047;-71
2022/08/26 06:33:59;;;;;;;18.35;10.43;;;21.00;99.90;;;;;;5112624;28;20036;-71
2022/08/26 06:36:29;;;;;;;19.02;10.02;;;21.10;99.90;;;;;;5113550;28;20040;-71
2022/08/26 06:38:59;;;;;;;20.50;10.48;;;21.10;99.90;;;;;;5095312;28;20032;-71
2022/08/26 06:41:25;;;;;;;21.33;9.60;;;21.10;99.90;;;;;;5112260;28;20035;-71
2022/08/26 06:43:51;;;;;;;16.83;8.68;;;21.10;99.90;;;;;;5112507;28;20044;-71
2022/08/26 06:46:20;;;;;;;21.70;9.57;;;21.10;99.90;;;;;;5146523;27;20518;-71
2022/08/26 06:48:46;;;;;;;16.15;9.25;;;21.20;99.90;;;;;;5117466;28;20039;-71
2022/08/26 06:51:15;;;;;;;18.63;8.65;;;21.20;99.90;;;;;;5117731;28;20035;-71
2022/08/26 06:53:44;;;;;;;15.80;8.65;;;21.20;99.90;;;;;;5116334;28;20092;-71
2022/08/26 06:56:10;;;;;;;14.45;7.82;;;21.30;99.90;;;;;;5117299;28;20044;-71
2022/08/26 06:58:38;;;;;;;16.75;7.57;;;21.30;99.90;;;;;;5099536;28;20391;-71
2022/08/26 07:01:14;;;;;;;17.05;7.85;;;21.30;99.90;;;;;;5116234;28;20042;-71
2022/08/26 07:03:39;;;;;;;16.67;7.35;;;21.30;99.90;;;;;;5116211;28;20046;-71
2022/08/26 07:06:05;;;;;;;14.20;7.05;;;21.30;99.90;;;;;;5150327;27;20036;-71
2022/08/26 07:08:31;;;;;;;15.98;7.45;;;21.30;99.90;;;;;;5115999;28;20043;-71
2022/08/26 07:10:57;;;;;;;14.80;6.95;;;21.30;99.90;;;;;;5116290;28;20498;-71
2022/08/26 07:13:22;;;;;;;14.93;8.00;;;21.40;99.90;;;;;;5117312;28;20052;-71
2022/08/26 07:15:48;;;;;;;15.15;7.00;;;21.40;99.90;;;;;;5117122;28;20052;-71
2022/08/26 07:18:14;;;;;;;14.73;7.50;;;21.40;99.90;;;;;;5099164;28;20035;-71
2022/08/26 07:20:40;;;;;;;13.05;7.25;;;21.40;99.90;;;;;;5150249;27;20031;-71
2022/08/26 07:23:07;;;;;;;13.63;6.90;;;21.50;99.90;;;;;;5115690;28;20036;-71
2022/08/26 07:25:33;;;;;;;14.13;6.65;;;21.40;99.90;;;;;;5098659;28;20043;-71
2022/08/26 07:27:59;;;;;;;17.42;8.05;;;21.50;99.90;;;;;;5115720;28;20050;-71
2022/08/26 07:30:24;;;;;;;18.58;7.05;;;21.40;99.90;;;;;;5150025;27;20402;-71
2022/08/26 07:32:50;;;;;;;17.02;7.50;;;21.40;99.90;;;;;;5116810;28;20039;-71
2022/08/26 07:35:16;;;;;;;17.08;6.43;;;21.40;99.90;;;;;;5149912;27;20043;-71
2022/08/26 07:37:41;;;;;;;15.57;5.90;;;21.40;99.90;;;;;;5116679;28;20502;-71
2022/08/26 07:40:08;;;;;;;15.95;6.10;;;21.40;99.90;;;;;;5150194;27;20075;-71
2022/08/26 07:42:34;;;;;;;19.17;5.95;;;21.40;99.90;;;;;;5098334;28;20531;-71
2022/08/26 07:44:59;;;;;;;14.40;6.28;;;21.40;99.90;;;;;;5116605;28;20123;-71
2022/08/26 07:47:25;;;;;;;18.40;6.68;;;21.40;99.90;;;;;;5115280;28;20039;-71
2022/08/26 07:49:52;;;;;;;14.98;5.57;;;21.40;99.90;;;;;;5116484;28;20031;-71
2022/08/26 07:52:18;;;;;;;13.27;5.68;;;21.40;99.90;;;;;;5098115;28;20170;-71
2022/08/26 07:54:43;;;;;;;15.02;6.10;;;21.40;99.90;;;;;;5149434;27;20131;-71
2022/08/26 07:57:09;;;;;;;16.50;5.43;;;21.40;99.90;;;;;;5149454;27;20043;-71
2022/08/26 07:59:34;;;;;;;12.40;5.07;;;21.30;99.90;;;;;;5148565;27;20120;-71
2022/08/26 08:02:00;;;;;;;15.38;4.72;;;21.30;99.90;;;;;;5149594;27;20027;-71
2022/08/26 08:04:26;;;;;;;13.57;4.88;;;21.30;99.90;;;;;;5149297;27;20165;-71
2022/08/26 08:06:53;;;;;;;17.02;5.30;;;21.30;99.90;;;;;;5116103;28;20076;-71
2022/08/26 08:09:19;;;;;;;14.55;4.53;;;21.40;99.90;;;;;;5116373;28;20039;-71
2022/08/26 08:11:45;;;;;;;12.48;5.25;;;21.40;99.90;;;;;;5149524;27;20036;-71
2022/08/26 08:14:11;;;;;;;14.52;5.00;;;21.40;99.90;;;;;;5115834;28;20488;-71
2022/08/26 08:16:37;;;;;;;14.00;4.85;;;21.40;99.90;;;;;;5097679;28;20085;-71
2022/08/26 08:19:03;;;;;;;12.50;4.68;;;21.40;99.90;;;;;;5114899;28;20039;-71
2022/08/26 08:21:29;;;;;;;12.50;5.20;;;21.40;99.90;;;;;;5114525;28;20032;-71
2022/08/26 08:23:56;;;;;;;12.27;4.68;;;21.40;99.90;;;;;;5116109;28;20039;-71
2022/08/26 08:26:23;;;;;;;12.25;4.28;;;21.40;99.90;;;;;;5115644;28;20503;-71
2022/08/26 08:28:49;;;;;;;11.43;4.47;;;21.50;99.90;;;;;;5114731;28;20447;-71
2022/08/26 08:31:27;;;;;;;12.40;4.55;;;21.50;99.90;;;;;;5114723;28;20467;-71
2022/08/26 08:33:53;;;;;;;12.65;3.60;;;21.50;99.90;;;;;;5115724;27;20040;-71
2022/08/26 08:36:19;;;;;;;9.68;2.95;;;21.40;99.90;;;;;;5114192;28;20047;-71
2022/08/26 08:38:45;;;;;;;10.35;3.35;;;21.40;99.90;;;;;;5115755;28;20035;-71
2022/08/26 08:41:39;;;;;;;12.38;3.65;;;21.30;99.90;;;;;;5115480;28;20502;-71
2022/08/26 08:44:13;;;;;;;12.82;3.17;;;21.40;99.90;;;;;;5115562;28;20058;-70
2022/08/26 08:46:41;;;;;;;9.77;2.38;;;21.50;99.90;;;;;;5114313;28;20047;-71
2022/08/26 08:49:08;;;;;;;10.00;2.80;;;21.50;99.90;;;;;;5115376;28;20503;-71
2022/08/26 08:51:50;;;;;;;11.88;2.95;;;21.50;99.90;;;;;;5115295;28;20047;-71
2022/08/26 08:54:16;;;;;;;14.43;2.75;;;21.50;99.90;;;;;;5113982;28;20051;-70
2022/08/26 08:57:14;;;;;;;11.07;2.42;;;21.50;99.90;;;;;;5115142;28;20043;-70
2022/08/26 08:59:52;;;;;;;13.65;2.70;;;21.40;99.90;;;;;;5103372;27;20500;-71
2022/08/26 09:02:51;;;;;;;11.30;2.58;;;21.40;99.90;;;;;;5115118;28;20475;-71
2022/08/26 09:05:30;;;;;;;11.23;2.72;;;21.40;99.90;;;;;;5113756;28;20040;-70
2022/08/26 09:08:03;;;;;;;11.80;2.60;;;21.40;99.90;;;;;;5115121;28;20039;-71
2022/08/26 09:10:44;;;;;;;10.00;2.50;;;21.40;99.90;;;;;;5113719;28;20039;-71
2022/08/26 09:13:13;;;;;;;8.13;2.30;;;21.40;99.90;;;;;;5096567;28;20515;-70
2022/08/26 09:15:51;;;;;;;9.65;2.20;;;21.30;99.90;;;;;;5113641;28;20047;-71
2022/08/26 09:18:23;;;;;;;8.05;1.90;;;21.30;99.90;;;;;;5114854;28;20044;-70
2022/08/26 09:20:56;;;;;;;10.70;2.20;;;21.30;99.90;;;;;;5113815;28;20051;-71
2022/08/26 09:23:22;;;;;;;9.05;2.38;;;21.40;99.90;;;;;;5114808;28;20040;-71
2022/08/26 09:25:55;;;;;;;8.23;2.05;;;21.40;99.90;;;;;;5096631;28;20047;-71
2022/08/26 09:28:23;;;;;;;11.18;2.22;;;21.40;99.90;;;;;;5114913;28;20035;-71
2022/08/26 09:31:34;;;;;;;9.13;2.58;;;21.40;99.90;;;;;;5113317;28;20047;-70
2022/08/26 09:34:23;;;;;;;7.60;1.90;;;21.50;99.90;;;;;;5110044;28;20047;-71
2022/08/26 09:36:54;;;;;;;7.95;2.00;;;21.40;99.90;;;;;;5113100;28;20040;-71
2022/08/26 09:39:22;;;;;;;10.05;1.80;;;21.40;99.90;;;;;;5147493;27;20071;-71
2022/08/26 09:42:00;;;;;;;10.18;2.05;;;21.40;99.90;;;;;;5114385;28;20078;-71
2022/08/26 09:44:26;;;;;;;7.28;2.00;;;21.40;99.90;;;;;;5113085;28;20035;-71
2022/08/26 09:46:56;;;;;;;6.60;2.03;;;21.40;99.90;;;;;;5114062;28;20088;-71
2022/08/26 09:49:35;;;;;;;9.48;2.17;;;21.40;99.90;;;;;;5112993;28;20295;-71
2022/08/26 09:52:12;;;;;;;12.50;2.67;;;21.30;99.90;;;;;;5114383;28;20027;-71
2022/08/26 09:54:39;;;;;;;9.60;2.42;;;21.30;99.90;;;;;;5114128;28;20044;-71
2022/08/26 09:57:48;;;;;;;8.80;2.05;;;21.30;99.90;;;;;;5147229;27;20032;-71
2022/08/26 10:00:29;;;;;;;11.23;2.55;;;21.30;99.90;;;;;;5034540;28;20073;-71
2022/08/26 10:02:57;;;;;;;11.27;2.22;;;21.40;99.90;;;;;;5111129;28;20044;-71
2022/08/26 10:06:25;;;;;;;12.55;2.22;;;21.30;99.90;;;;;;5113997;27;20047;-71
2022/08/26 10:08:59;;;;;;;10.95;2.42;;;21.30;99.90;;;;;;5067809;28;20092;-71
2022/08/26 10:11:35;;;;;;;9.27;2.38;;;21.40;99.90;;;;;;5034897;28;20494;-71
2022/08/26 10:14:12;;;;;;;10.00;2.38;;;21.30;99.90;;;;;;5088540;28;20107;-71
2022/08/26 10:16:59;;;;;;;9.68;2.33;;;21.30;99.90;;;;;;5112579;28;20070;-71
2022/08/26 10:19:33;;;;;;;8.30;2.08;;;21.30;99.90;;;;;;5113880;28;20039;-71
2022/08/26 10:22:22;;;;;;;11.13;2.55;;;21.40;99.90;;;;;;5112173;28;20043;-71
2022/08/26 10:24:51;;;;;;;10.20;2.50;;;21.40;99.90;;;;;;5101775;28;20055;-71
2022/08/26 10:28:05;;;;;;;8.30;2.15;;;21.30;99.90;;;;;;5112698;28;20074;-71
2022/08/26 10:30:39;;;;;;;10.65;2.40;;;21.30;99.90;;;;;;5051553;28;20426;-71
2022/08/26 10:33:11;;;;;;;9.82;2.17;;;21.30;99.90;;;;;;5112686;28;20372;-71
2022/08/26 10:35:40;;;;;;;;;;;21.30;99.90;;;;;;5114117;28;20045;-70
2022/08/26 10:38:15;;;;;;;6.97;2.22;;;21.20;99.90;;;;;;5112258;28;19915;-71
2022/08/26 10:40:57;;;;;;;10.13;2.13;;;21.20;99.90;;;;;;5112625;28;20429;-71
2022/08/26 10:43:35;;;;;;;10.35;2.60;;;21.30;99.90;;;;;;5112340;28;20055;-71
2022/08/26 10:46:10;;;;;;;13.27;2.70;;;21.30;99.90;;;;;;5112563;28;20031;-71
2022/08/26 10:48:55;;;;;;;9.40;2.63;;;21.30;99.90;;;;;;5112427;28;20168;-71
2022/08/26 10:51:28;;;;;;;11.30;2.30;;;21.30;99.90;;;;;;5113444;28;20118;-71
2022/08/26 10:54:03;;;;;;;12.70;2.60;;;21.30;99.90;;;;;;5113671;28;20051;-71
2022/08/26 10:57:13;;;;;;;8.80;2.40;;;21.30;99.90;;;;;;5112181;28;20438;-71
2022/08/26 11:03:12;;;;;;;7.63;2.40;;;21.30;99.90;;;;;;5113536;28;20036;-70
2022/08/26 11:05:38;;;;;;;9.70;2.55;;;21.30;99.90;;;;;;5113283;28;20621;-71
2022/08/26 11:08:19;;;;;;;10.23;2.50;;;21.30;99.90;;;;;;5112014;28;20114;-71
2022/08/26 11:10:50;;;;;;;9.80;2.53;;;21.20;99.90;;;;;;5146362;27;20036;-71
2022/08/26 11:13:16;;;;;;;10.30;2.40;;;21.30;99.90;;;;;;5094887;28;20047;-70
2022/08/26 11:15:42;;;;;;;11.98;2.80;;;21.40;99.90;;;;;;5111912;28;20047;-71
2022/08/26 11:18:10;;;;;;;9.15;2.20;;;21.30;99.90;;;;;;5113188;28;20054;-71
2022/08/26 11:20:44;;;;;;;13.20;2.67;;;21.30;99.90;;;;;;5146150;27;20032;-71
2022/08/26 11:23:21;;;;;;;8.70;2.22;;;21.40;99.90;;;;;;5111940;28;20040;-71
2022/08/26 11:26:06;;;;;;;8.02;1.98;;;21.40;99.90;;;;;;5146561;27;20052;-71
2022/08/26 11:28:37;;;;;;;8.77;2.17;;;21.40;99.90;;;;;;5111864;28;20044;-71
2022/08/26 11:31:06;;;;;;;7.28;2.30;;;21.40;99.90;;;;;;5113060;28;20035;-71
2022/08/26 11:33:49;;;;;;;9.38;2.28;;;21.50;99.90;;;;;;5113126;28;20484;-71
2022/08/26 11:36:32;;;;;;;9.27;2.28;;;21.40;99.90;;;;;;5149833;27;20487;-71
2022/08/26 11:39:00;;;;;;;8.52;2.10;;;21.50;99.90;;;;;;5116588;28;20031;-71
2022/08/26 11:41:28;;;;;;;9.23;2.40;;;21.50;99.90;;;;;;5115391;28;20085;-71
2022/08/26 11:43:56;;;;;;;10.75;2.70;;;21.40;99.90;;;;;;5115361;28;20046;-71
2022/08/26 11:46:29;;;;;;;6.82;2.00;;;21.40;99.90;;;;;;5116780;28;20043;-71
2022/08/26 11:49:04;;;;;;;7.53;1.98;;;21.40;99.90;;;;;;5116525;28;20043;-71
2022/08/26 11:51:30;;;;;;;9.05;2.42;;;21.50;99.90;;;;;;5115259;28;20126;-71
2022/08/26 11:54:32;;;;;;;10.25;2.28;;;21.50;99.90;;;;;;5116361;28;20065;-71
2022/08/26 11:56:58;;;;;;;7.53;2.00;;;21.50;99.90;;;;;;5036962;28;20076;-71
2022/08/26 11:59:32;;;;;;;10.77;2.13;;;21.50;99.90;;;;;;5098776;28;20047;-71
2022/08/26 12:01:59;;;;;;;9.95;2.60;;;21.50;99.90;;;;;;5116395;28;20039;-71
2022/08/26 12:04:32;;;;;;;9.40;2.63;;;21.50;99.90;;;;;;5115307;28;20036;-71
2022/08/26 12:07:00;;;;;;;10.27;2.75;;;21.50;99.90;;;;;;5115197;28;20097;-71
2022/08/26 12:09:29;;;;;;;7.18;2.25;;;21.50;99.90;;;;;;5114781;28;20492;-71
2022/08/26 12:12:20;;;;;;;10.50;2.15;;;21.50;99.90;;;;;;5116183;28;20036;-71
2022/08/26 12:14:46;;;;;;;7.38;2.30;;;21.40;99.90;;;;;;5115856;28;20055;-71
2022/08/26 12:17:15;;;;;;;8.90;2.85;;;21.40;99.90;;;;;;5114676;28;20031;-71
2022/08/26 12:19:41;;;;;;;10.38;2.47;;;21.40;99.90;;;;;;5114636;28;20047;-71
2022/08/26 12:22:26;;;;;;;8.13;2.33;;;21.30;99.90;;;;;;5114633;28;20031;-71
2022/08/26 12:25:01;;;;;;;8.85;2.72;;;21.30;99.90;;;;;;5097986;28;20079;-71
2022/08/26 12:27:29;;;;;;;12.75;2.50;;;21.20;99.90;;;;;;5115840;28;20039;-71
2022/08/26 12:30:11;;;;;;;10.52;2.50;;;21.20;99.90;;;;;;5114437;28;20061;-71
2022/08/26 12:32:39;;;;;;;9.07;2.10;;;21.20;99.90;;;;;;5148886;27;20096;-71
2022/08/26 12:35:18;;;;;;;10.70;2.30;;;21.20;99.90;;;;;;5097359;28;20035;-71
2022/08/26 12:37:51;;;;;;;7.88;2.10;;;21.20;99.90;;;;;;5115570;27;20052;-71
2022/08/26 12:40:29;;;;;;;10.48;2.20;;;21.10;99.90;;;;;;5114210;28;20035;-71
2022/08/26 12:43:00;;;;;;;7.88;1.73;;;21.10;99.90;;;;;;5115625;28;20043;-71
2022/08/26 12:45:42;;;;;;;6.38;1.55;;;21.10;99.90;;;;;;5115325;28;20090;-71
2022/08/26 12:48:09;;;;;;;8.48;1.77;;;21.00;99.90;;;;;;5113987;28;20067;-71
2022/08/26 12:50:42;;;;;;;16.38;2.50;;;21.10;99.90;;;;;;5114116;28;20048;-71
2022/08/26 12:53:08;;;;;;;12.25;2.10;;;21.10;99.90;;;;;;5097096;28;20035;-71
2022/08/26 12:55:46;;;;;;;12.23;2.50;;;21.10;99.90;;;;;;5097107;28;20044;-71
2022/08/26 12:58:14;;;;;;;9.85;2.17;;;21.10;99.90;;;;;;5097442;28;20061;-71